sensor_id;sensor_type;location;lat;lon;timestamp;temperature;humidity
66057;DHT22;52842;52.666;5.202;2022-10-22T00:01:51;19.10;80.70
66057;DHT22;52842;52.666;5.202;2022-10-22T00:04:18;19.10;80.70
66057;DHT22;52842;52.666;5.202;2022-10-22T00:06:46;19.10;80.60
66057;DHT22;52842;52.666;5.202;2022-10-22T00:09:13;19.10;80.60
66057;DHT22;52842;52.666;5.202;2022-10-22T00:11:40;19.10;80.60
66057;DHT22;52842;52.666;5.202;2022-10-22T00:14:07;19.10;80.70
66057;DHT22;52842;52.666;5.202;2022-10-22T00:16:34;19.10;80.60
66057;DHT22;52842;52.666;5.202;2022-10-22T00:19:00;19.10;80.60
66057;DHT22;52842;52.666;5.202;2022-10-22T00:21:27;19.10;80.60
66057;DHT22;52842;52.666;5.202;2022-10-22T00:23:56;19.10;80.60
66057;DHT22;52842;52.666;5.202;2022-10-22T00:26:23;19.10;80.60
66057;DHT22;52842;52.666;5.202;2022-10-22T00:28:49;19.10;80.60
66057;DHT22;52842;52.666;5.202;2022-10-22T00:31:16;19.10;80.60
66057;DHT22;52842;52.666;5.202;2022-10-22T00:33:44;19.10;80.60
66057;DHT22;52842;52.666;5.202;2022-10-22T00:36:11;19.10;80.60
66057;DHT22;52842;52.666;5.202;2022-10-22T00:38:38;19.10;80.60
66057;DHT22;52842;52.666;5.202;2022-10-22T00:41:06;19.10;80.50
66057;DHT22;52842;52.666;5.202;2022-10-22T00:43:33;19.10;80.60
66057;DHT22;52842;52.666;5.202;2022-10-22T00:45:59;19.10;80.50
66057;DHT22;52842;52.666;5.202;2022-10-22T00:48:27;19.10;80.50
66057;DHT22;52842;52.666;5.202;2022-10-22T00:50:55;19.10;80.50
66057;DHT22;52842;52.666;5.202;2022-10-22T00:53:23;19.10;80.60
66057;DHT22;52842;52.666;5.202;2022-10-22T00:55:51;19.10;80.50
66057;DHT22;52842;52.666;5.202;2022-10-22T00:58:20;19.10;80.50
66057;DHT22;52842;52.666;5.202;2022-10-22T01:00:48;19.10;80.50
66057;DHT22;52842;52.666;5.202;2022-10-22T01:03:15;19.00;80.40
66057;DHT22;52842;52.666;5.202;2022-10-22T01:05:41;19.00;80.30
66057;DHT22;52842;52.666;5.202;2022-10-22T01:08:10;19.00;80.30
66057;DHT22;52842;52.666;5.202;2022-10-22T01:10:45;19.00;80.30
66057;DHT22;52842;52.666;5.202;2022-10-22T01:13:23;19.00;80.50
66057;DHT22;52842;52.666;5.202;2022-10-22T01:15:55;19.00;80.40
66057;DHT22;52842;52.666;5.202;2022-10-22T01:18:29;19.00;80.40
66057;DHT22;52842;52.666;5.202;2022-10-22T01:21:03;19.00;80.40
66057;DHT22;52842;52.666;5.202;2022-10-22T01:23:39;19.10;80.50
66057;DHT22;52842;52.666;5.202;2022-10-22T01:26:13;19.00;80.40
66057;DHT22;52842;52.666;5.202;2022-10-22T01:28:49;19.00;80.40
66057;DHT22;52842;52.666;5.202;2022-10-22T01:31:17;19.00;80.30
66057;DHT22;52842;52.666;5.202;2022-10-22T01:33:46;19.00;80.30
66057;DHT22;52842;52.666;5.202;2022-10-22T01:36:14;19.00;80.30
66057;DHT22;52842;52.666;5.202;2022-10-22T01:38:42;19.00;80.30
66057;DHT22;52842;52.666;5.202;2022-10-22T01:41:10;19.00;80.30
66057;DHT22;52842;52.666;5.202;2022-10-22T01:43:36;19.00;80.30
66057;DHT22;52842;52.666;5.202;2022-10-22T01:46:05;19.00;80.30
66057;DHT22;52842;52.666;5.202;2022-10-22T01:48:33;19.00;80.30
66057;DHT22;52842;52.666;5.202;2022-10-22T01:51:07;19.00;80.30
66057;DHT22;52842;52.666;5.202;2022-10-22T01:53:38;19.00;80.30
66057;DHT22;52842;52.666;5.202;2022-10-22T01:56:13;19.00;80.30
66057;DHT22;52842;52.666;5.202;2022-10-22T01:58:43;19.00;80.30
66057;DHT22;52842;52.666;5.202;2022-10-22T02:01:17;19.00;80.30
66057;DHT22;52842;52.666;5.202;2022-10-22T02:03:45;19.00;80.30
66057;DHT22;52842;52.666;5.202;2022-10-22T02:06:15;19.00;80.30
66057;DHT22;52842;52.666;5.202;2022-10-22T02:08:42;19.00;80.30
66057;DHT22;52842;52.666;5.202;2022-10-22T02:11:10;19.00;80.30
66057;DHT22;52842;52.666;5.202;2022-10-22T02:13:38;19.00;80.30
66057;DHT22;52842;52.666;5.202;2022-10-22T02:16:07;19.00;80.30
66057;DHT22;52842;52.666;5.202;2022-10-22T02:18:36;19.00;80.30
66057;DHT22;52842;52.666;5.202;2022-10-22T02:21:04;18.90;80.20
66057;DHT22;52842;52.666;5.202;2022-10-22T02:23:31;18.90;80.30
66057;DHT22;52842;52.666;5.202;2022-10-22T02:25:59;18.90;80.20
66057;DHT22;52842;52.666;5.202;2022-10-22T02:28:28;19.00;80.30
66057;DHT22;52842;52.666;5.202;2022-10-22T02:30:58;18.90;80.20
66057;DHT22;52842;52.666;5.202;2022-10-22T02:33:27;19.00;80.30
66057;DHT22;52842;52.666;5.202;2022-10-22T02:35:55;18.90;80.20
66057;DHT22;52842;52.666;5.202;2022-10-22T02:38:23;19.00;80.30
66057;DHT22;52842;52.666;5.202;2022-10-22T02:40:51;19.00;80.20
66057;DHT22;52842;52.666;5.202;2022-10-22T02:43:18;18.90;80.20
66057;DHT22;52842;52.666;5.202;2022-10-22T02:45:44;19.00;80.30
66057;DHT22;52842;52.666;5.202;2022-10-22T02:48:11;18.90;80.20
66057;DHT22;52842;52.666;5.202;2022-10-22T02:50:38;18.90;80.20
66057;DHT22;52842;52.666;5.202;2022-10-22T02:53:06;18.90;80.20
66057;DHT22;52842;52.666;5.202;2022-10-22T02:55:32;19.00;80.30
66057;DHT22;52842;52.666;5.202;2022-10-22T02:57:59;18.90;80.20
66057;DHT22;52842;52.666;5.202;2022-10-22T03:00:26;18.90;80.20
66057;DHT22;52842;52.666;5.202;2022-10-22T03:02:53;18.90;80.20
66057;DHT22;52842;52.666;5.202;2022-10-22T03:05:20;18.90;80.20
66057;DHT22;52842;52.666;5.202;2022-10-22T03:07:47;18.90;80.20
66057;DHT22;52842;52.666;5.202;2022-10-22T03:10:15;18.90;80.20
66057;DHT22;52842;52.666;5.202;2022-10-22T03:12:41;18.90;80.30
66057;DHT22;52842;52.666;5.202;2022-10-22T03:15:08;18.90;80.20
66057;DHT22;52842;52.666;5.202;2022-10-22T03:17:35;18.90;80.20
66057;DHT22;52842;52.666;5.202;2022-10-22T03:20:02;18.90;80.20
66057;DHT22;52842;52.666;5.202;2022-10-22T03:22:29;18.90;80.20
66057;DHT22;52842;52.666;5.202;2022-10-22T03:24:58;18.90;80.20
66057;DHT22;52842;52.666;5.202;2022-10-22T03:27:27;18.90;80.20
66057;DHT22;52842;52.666;5.202;2022-10-22T03:29:54;18.90;80.20
66057;DHT22;52842;52.666;5.202;2022-10-22T03:32:22;18.90;80.20
66057;DHT22;52842;52.666;5.202;2022-10-22T03:34:48;18.90;80.20
66057;DHT22;52842;52.666;5.202;2022-10-22T03:37:15;18.90;80.20
66057;DHT22;52842;52.666;5.202;2022-10-22T03:39:42;18.90;80.20
66057;DHT22;52842;52.666;5.202;2022-10-22T03:42:09;18.90;80.10
66057;DHT22;52842;52.666;5.202;2022-10-22T03:44:39;18.90;80.20
66057;DHT22;52842;52.666;5.202;2022-10-22T03:47:05;18.90;80.20
66057;DHT22;52842;52.666;5.202;2022-10-22T03:49:32;18.80;80.10
66057;DHT22;52842;52.666;5.202;2022-10-22T03:52:03;18.90;80.20
66057;DHT22;52842;52.666;5.202;2022-10-22T03:54:30;18.80;80.10
66057;DHT22;52842;52.666;5.202;2022-10-22T03:56:57;18.80;80.10
66057;DHT22;52842;52.666;5.202;2022-10-22T03:59:23;18.80;80.10
66057;DHT22;52842;52.666;5.202;2022-10-22T04:01:51;18.80;80.10
66057;DHT22;52842;52.666;5.202;2022-10-22T04:04:18;18.80;80.20
66057;DHT22;52842;52.666;5.202;2022-10-22T04:06:45;18.90;80.20
66057;DHT22;52842;52.666;5.202;2022-10-22T04:09:11;18.80;81.00
66057;DHT22;52842;52.666;5.202;2022-10-22T04:11:38;18.80;80.20
66057;DHT22;52842;52.666;5.202;2022-10-22T04:14:04;18.80;80.20
66057;DHT22;52842;52.666;5.202;2022-10-22T04:16:31;18.80;80.20
66057;DHT22;52842;52.666;5.202;2022-10-22T04:18:59;18.80;80.20
66057;DHT22;52842;52.666;5.202;2022-10-22T04:21:26;18.80;80.20
66057;DHT22;52842;52.666;5.202;2022-10-22T04:23:54;18.80;80.20
66057;DHT22;52842;52.666;5.202;2022-10-22T04:26:21;18.80;80.10
66057;DHT22;52842;52.666;5.202;2022-10-22T04:28:48;18.80;80.10
66057;DHT22;52842;52.666;5.202;2022-10-22T04:31:16;18.80;80.20
66057;DHT22;52842;52.666;5.202;2022-10-22T04:33:43;18.80;80.10
66057;DHT22;52842;52.666;5.202;2022-10-22T04:36:12;18.80;80.10
66057;DHT22;52842;52.666;5.202;2022-10-22T04:38:39;18.80;80.10
66057;DHT22;52842;52.666;5.202;2022-10-22T04:41:10;18.80;80.10
66057;DHT22;52842;52.666;5.202;2022-10-22T04:43:37;18.80;80.10
66057;DHT22;52842;52.666;5.202;2022-10-22T04:46:04;18.80;80.20
66057;DHT22;52842;52.666;5.202;2022-10-22T04:48:33;18.80;80.20
66057;DHT22;52842;52.666;5.202;2022-10-22T04:51:00;18.80;80.20
66057;DHT22;52842;52.666;5.202;2022-10-22T04:53:28;18.80;80.20
66057;DHT22;52842;52.666;5.202;2022-10-22T04:55:54;18.80;80.20
66057;DHT22;52842;52.666;5.202;2022-10-22T04:58:21;18.80;80.20
66057;DHT22;52842;52.666;5.202;2022-10-22T05:00:47;18.80;80.20
66057;DHT22;52842;52.666;5.202;2022-10-22T05:03:14;18.80;80.20
66057;DHT22;52842;52.666;5.202;2022-10-22T05:05:41;18.80;80.20
66057;DHT22;52842;52.666;5.202;2022-10-22T05:08:07;18.80;80.20
66057;DHT22;52842;52.666;5.202;2022-10-22T05:10:35;18.90;80.20
66057;DHT22;52842;52.666;5.202;2022-10-22T05:13:02;18.80;80.10
66057;DHT22;52842;52.666;5.202;2022-10-22T05:15:29;18.90;80.20
66057;DHT22;52842;52.666;5.202;2022-10-22T05:17:55;18.90;80.20
66057;DHT22;52842;52.666;5.202;2022-10-22T05:20:22;18.90;80.20
66057;DHT22;52842;52.666;5.202;2022-10-22T05:22:48;18.90;80.20
66057;DHT22;52842;52.666;5.202;2022-10-22T05:25:15;19.10;80.10
66057;DHT22;52842;52.666;5.202;2022-10-22T05:27:43;19.20;79.80
66057;DHT22;52842;52.666;5.202;2022-10-22T05:30:14;19.40;79.50
66057;DHT22;52842;52.666;5.202;2022-10-22T05:32:40;19.60;78.80
66057;DHT22;52842;52.666;5.202;2022-10-22T05:35:07;19.80;78.10
66057;DHT22;52842;52.666;5.202;2022-10-22T05:37:34;20.00;77.40
66057;DHT22;52842;52.666;5.202;2022-10-22T05:40:00;20.20;76.50
66057;DHT22;52842;52.666;5.202;2022-10-22T05:42:30;20.30;76.00
66057;DHT22;52842;52.666;5.202;2022-10-22T05:44:57;20.40;75.60
66057;DHT22;52842;52.666;5.202;2022-10-22T05:47:24;20.30;75.30
66057;DHT22;52842;52.666;5.202;2022-10-22T05:49:51;20.30;75.90
66057;DHT22;52842;52.666;5.202;2022-10-22T05:52:17;20.10;75.30
66057;DHT22;52842;52.666;5.202;2022-10-22T05:54:44;20.00;75.60
66057;DHT22;52842;52.666;5.202;2022-10-22T05:57:11;19.90;76.00
66057;DHT22;52842;52.666;5.202;2022-10-22T05:59:37;19.80;76.20
66057;DHT22;52842;52.666;5.202;2022-10-22T06:02:06;19.70;77.30
66057;DHT22;52842;52.666;5.202;2022-10-22T06:04:34;19.70;76.80
66057;DHT22;52842;52.666;5.202;2022-10-22T06:07:00;19.60;77.00
66057;DHT22;52842;52.666;5.202;2022-10-22T06:09:28;19.50;77.20
66057;DHT22;52842;52.666;5.202;2022-10-22T06:11:55;19.50;77.30
66057;DHT22;52842;52.666;5.202;2022-10-22T06:14:22;19.50;77.40
66057;DHT22;52842;52.666;5.202;2022-10-22T06:16:48;19.50;77.50
66057;DHT22;52842;52.666;5.202;2022-10-22T06:19:17;19.40;77.60
66057;DHT22;52842;52.666;5.202;2022-10-22T06:21:44;19.40;77.70
66057;DHT22;52842;52.666;5.202;2022-10-22T06:24:11;19.40;77.80
66057;DHT22;52842;52.666;5.202;2022-10-22T06:26:38;19.40;77.80
66057;DHT22;52842;52.666;5.202;2022-10-22T06:29:05;19.40;77.90
66057;DHT22;52842;52.666;5.202;2022-10-22T06:31:32;19.40;77.90
66057;DHT22;52842;52.666;5.202;2022-10-22T06:34:01;19.40;77.90
66057;DHT22;52842;52.666;5.202;2022-10-22T06:36:29;19.40;77.90
66057;DHT22;52842;52.666;5.202;2022-10-22T06:38:55;19.40;77.90
66057;DHT22;52842;52.666;5.202;2022-10-22T06:41:22;19.40;77.90
66057;DHT22;52842;52.666;5.202;2022-10-22T06:43:49;19.40;77.90
66057;DHT22;52842;52.666;5.202;2022-10-22T06:46:17;19.40;77.90
66057;DHT22;52842;52.666;5.202;2022-10-22T06:48:47;19.40;77.90
66057;DHT22;52842;52.666;5.202;2022-10-22T06:51:13;19.40;77.90
66057;DHT22;52842;52.666;5.202;2022-10-22T06:53:41;19.40;77.90
66057;DHT22;52842;52.666;5.202;2022-10-22T06:56:10;19.40;78.00
66057;DHT22;52842;52.666;5.202;2022-10-22T06:58:37;19.40;78.00
66057;DHT22;52842;52.666;5.202;2022-10-22T07:01:05;19.40;77.90
66057;DHT22;52842;52.666;5.202;2022-10-22T07:03:32;19.40;77.90
66057;DHT22;52842;52.666;5.202;2022-10-22T07:05:59;19.40;78.00
66057;DHT22;52842;52.666;5.202;2022-10-22T07:08:26;19.40;77.90
66057;DHT22;52842;52.666;5.202;2022-10-22T07:10:54;19.40;77.90
66057;DHT22;52842;52.666;5.202;2022-10-22T07:13:22;19.40;78.00
66057;DHT22;52842;52.666;5.202;2022-10-22T07:15:52;19.40;77.90
66057;DHT22;52842;52.666;5.202;2022-10-22T07:18:19;19.40;77.90
66057;DHT22;52842;52.666;5.202;2022-10-22T07:20:46;19.40;77.80
66057;DHT22;52842;52.666;5.202;2022-10-22T07:23:13;19.50;77.90
66057;DHT22;52842;52.666;5.202;2022-10-22T07:25:40;19.50;77.80
66057;DHT22;52842;52.666;5.202;2022-10-22T07:28:08;19.50;78.50
66057;DHT22;52842;52.666;5.202;2022-10-22T07:30:34;19.40;77.80
66057;DHT22;52842;52.666;5.202;2022-10-22T07:33:02;19.50;77.80
66057;DHT22;52842;52.666;5.202;2022-10-22T07:35:28;19.50;77.80
66057;DHT22;52842;52.666;5.202;2022-10-22T07:37:55;19.50;77.80
66057;DHT22;52842;52.666;5.202;2022-10-22T07:40:22;19.50;77.80
66057;DHT22;52842;52.666;5.202;2022-10-22T07:42:48;19.50;77.80
66057;DHT22;52842;52.666;5.202;2022-10-22T07:45:16;19.50;77.80
66057;DHT22;52842;52.666;5.202;2022-10-22T07:47:43;19.50;77.80
66057;DHT22;52842;52.666;5.202;2022-10-22T07:50:10;19.50;77.80
66057;DHT22;52842;52.666;5.202;2022-10-22T07:52:36;19.50;77.90
66057;DHT22;52842;52.666;5.202;2022-10-22T07:55:03;19.50;77.80
66057;DHT22;52842;52.666;5.202;2022-10-22T07:57:30;19.50;77.70
66057;DHT22;52842;52.666;5.202;2022-10-22T07:59:57;19.50;77.70
66057;DHT22;52842;52.666;5.202;2022-10-22T08:02:25;19.50;77.70
66057;DHT22;52842;52.666;5.202;2022-10-22T08:04:52;19.50;77.70
66057;DHT22;52842;52.666;5.202;2022-10-22T08:07:21;19.50;77.70
66057;DHT22;52842;52.666;5.202;2022-10-22T08:09:48;19.50;77.60
66057;DHT22;52842;52.666;5.202;2022-10-22T08:12:14;19.50;77.60
66057;DHT22;52842;52.666;5.202;2022-10-22T08:14:41;19.50;77.60
66057;DHT22;52842;52.666;5.202;2022-10-22T08:17:08;19.50;77.60
66057;DHT22;52842;52.666;5.202;2022-10-22T08:19:36;19.50;77.60
66057;DHT22;52842;52.666;5.202;2022-10-22T08:22:03;19.50;77.60
66057;DHT22;52842;52.666;5.202;2022-10-22T08:24:29;19.50;77.60
66057;DHT22;52842;52.666;5.202;2022-10-22T08:26:56;19.50;77.60
66057;DHT22;52842;52.666;5.202;2022-10-22T08:29:23;19.50;77.50
66057;DHT22;52842;52.666;5.202;2022-10-22T08:31:51;19.50;77.60
66057;DHT22;52842;52.666;5.202;2022-10-22T08:34:19;19.50;77.60
66057;DHT22;52842;52.666;5.202;2022-10-22T08:36:47;19.50;77.70
66057;DHT22;52842;52.666;5.202;2022-10-22T08:39:13;19.50;77.70
66057;DHT22;52842;52.666;5.202;2022-10-22T08:41:42;19.50;77.80
66057;DHT22;52842;52.666;5.202;2022-10-22T08:44:20;19.50;77.70
66057;DHT22;52842;52.666;5.202;2022-10-22T08:46:59;19.50;77.70
66057;DHT22;52842;52.666;5.202;2022-10-22T08:49:28;19.50;77.60
66057;DHT22;52842;52.666;5.202;2022-10-22T08:51:57;19.60;77.70
66057;DHT22;52842;52.666;5.202;2022-10-22T08:54:27;19.50;77.50
66057;DHT22;52842;52.666;5.202;2022-10-22T08:56:58;19.50;77.50
66057;DHT22;52842;52.666;5.202;2022-10-22T08:59:30;19.60;77.50
66057;DHT22;52842;52.666;5.202;2022-10-22T09:02:00;19.60;77.60
66057;DHT22;52842;52.666;5.202;2022-10-22T09:04:27;19.60;77.50
66057;DHT22;52842;52.666;5.202;2022-10-22T09:06:57;19.50;77.40
66057;DHT22;52842;52.666;5.202;2022-10-22T09:09:25;19.50;77.40
66057;DHT22;52842;52.666;5.202;2022-10-22T09:11:53;19.50;77.40
66057;DHT22;52842;52.666;5.202;2022-10-22T09:14:22;19.60;77.50
66057;DHT22;52842;52.666;5.202;2022-10-22T09:16:57;19.50;77.40
66057;DHT22;52842;52.666;5.202;2022-10-22T09:19:28;19.50;77.30
66057;DHT22;52842;52.666;5.202;2022-10-22T09:22:00;19.50;77.40
66057;DHT22;52842;52.666;5.202;2022-10-22T09:24:32;19.60;77.40
66057;DHT22;52842;52.666;5.202;2022-10-22T09:26:59;19.60;77.40
66057;DHT22;52842;52.666;5.202;2022-10-22T09:29:29;19.60;77.30
66057;DHT22;52842;52.666;5.202;2022-10-22T09:31:57;19.60;77.30
66057;DHT22;52842;52.666;5.202;2022-10-22T09:34:23;19.60;77.30
66057;DHT22;52842;52.666;5.202;2022-10-22T09:36:55;19.60;77.90
66057;DHT22;52842;52.666;5.202;2022-10-22T09:39:24;19.60;77.20
66057;DHT22;52842;52.666;5.202;2022-10-22T09:41:51;19.60;77.20
66057;DHT22;52842;52.666;5.202;2022-10-22T09:44:18;19.60;77.10
66057;DHT22;52842;52.666;5.202;2022-10-22T09:46:45;19.60;77.10
66057;DHT22;52842;52.666;5.202;2022-10-22T09:49:12;19.60;77.10
66057;DHT22;52842;52.666;5.202;2022-10-22T09:51:45;19.60;77.10
66057;DHT22;52842;52.666;5.202;2022-10-22T09:54:13;19.60;77.10
66057;DHT22;52842;52.666;5.202;2022-10-22T09:56:47;19.60;77.10
66057;DHT22;52842;52.666;5.202;2022-10-22T09:59:14;19.60;77.00
66057;DHT22;52842;52.666;5.202;2022-10-22T10:01:41;19.60;77.10
66057;DHT22;52842;52.666;5.202;2022-10-22T10:04:09;19.60;77.00
66057;DHT22;52842;52.666;5.202;2022-10-22T10:06:37;19.60;77.00
66057;DHT22;52842;52.666;5.202;2022-10-22T10:09:05;19.60;77.00
66057;DHT22;52842;52.666;5.202;2022-10-22T10:11:33;19.60;76.90
66057;DHT22;52842;52.666;5.202;2022-10-22T10:14:05;19.60;77.00
66057;DHT22;52842;52.666;5.202;2022-10-22T10:16:39;19.60;76.90
66057;DHT22;52842;52.666;5.202;2022-10-22T10:19:14;19.70;77.00
66057;DHT22;52842;52.666;5.202;2022-10-22T10:21:45;19.70;76.90
66057;DHT22;52842;52.666;5.202;2022-10-22T10:24:16;19.70;76.90
66057;DHT22;52842;52.666;5.202;2022-10-22T10:26:46;19.60;76.90
66057;DHT22;52842;52.666;5.202;2022-10-22T10:29:19;19.70;76.90
66057;DHT22;52842;52.666;5.202;2022-10-22T10:31:51;19.70;76.90
66057;DHT22;52842;52.666;5.202;2022-10-22T10:34:23;19.60;76.90
66057;DHT22;52842;52.666;5.202;2022-10-22T10:36:53;19.60;76.80
66057;DHT22;52842;52.666;5.202;2022-10-22T10:39:26;19.60;76.80
66057;DHT22;52842;52.666;5.202;2022-10-22T10:41:56;19.70;76.90
66057;DHT22;52842;52.666;5.202;2022-10-22T10:44:29;19.70;76.90
66057;DHT22;52842;52.666;5.202;2022-10-22T10:47:01;19.70;76.90
66057;DHT22;52842;52.666;5.202;2022-10-22T10:49:31;19.70;76.90
66057;DHT22;52842;52.666;5.202;2022-10-22T10:52:00;19.70;76.80
66057;DHT22;52842;52.666;5.202;2022-10-22T10:54:40;19.70;76.80
66057;DHT22;52842;52.666;5.202;2022-10-22T10:57:10;19.70;77.50
66057;DHT22;52842;52.666;5.202;2022-10-22T10:59:43;19.70;76.90
66057;DHT22;52842;52.666;5.202;2022-10-22T11:02:23;19.70;76.80
66057;DHT22;52842;52.666;5.202;2022-10-22T11:05:02;19.70;76.80
66057;DHT22;52842;52.666;5.202;2022-10-22T11:07:32;19.70;76.70
66057;DHT22;52842;52.666;5.202;2022-10-22T11:10:01;19.70;76.70
66057;DHT22;52842;52.666;5.202;2022-10-22T11:12:29;19.70;76.70
66057;DHT22;52842;52.666;5.202;2022-10-22T11:15:00;19.70;76.70
66057;DHT22;52842;52.666;5.202;2022-10-22T11:17:28;19.70;76.70
66057;DHT22;52842;52.666;5.202;2022-10-22T11:19:58;19.70;76.70
66057;DHT22;52842;52.666;5.202;2022-10-22T11:22:27;19.70;76.80
66057;DHT22;52842;52.666;5.202;2022-10-22T11:24:56;19.70;76.70
66057;DHT22;52842;52.666;5.202;2022-10-22T11:27:27;19.70;76.70
66057;DHT22;52842;52.666;5.202;2022-10-22T11:29:56;19.70;76.70
66057;DHT22;52842;52.666;5.202;2022-10-22T11:32:25;19.70;76.60
66057;DHT22;52842;52.666;5.202;2022-10-22T11:34:53;19.80;76.70
66057;DHT22;52842;52.666;5.202;2022-10-22T11:37:20;19.70;76.60
66057;DHT22;52842;52.666;5.202;2022-10-22T11:39:48;19.80;76.70
66057;DHT22;52842;52.666;5.202;2022-10-22T11:42:17;19.80;76.70
66057;DHT22;52842;52.666;5.202;2022-10-22T11:44:48;19.80;76.60
66057;DHT22;52842;52.666;5.202;2022-10-22T11:47:26;19.80;76.60
66057;DHT22;52842;52.666;5.202;2022-10-22T11:49:57;19.80;76.60
66057;DHT22;52842;52.666;5.202;2022-10-22T11:52:26;19.80;76.60
66057;DHT22;52842;52.666;5.202;2022-10-22T11:55:02;19.80;76.60
66057;DHT22;52842;52.666;5.202;2022-10-22T11:57:52;19.80;76.60
66057;DHT22;52842;52.666;5.202;2022-10-22T12:00:32;19.80;76.60
66057;DHT22;52842;52.666;5.202;2022-10-22T12:03:14;19.80;76.60
66057;DHT22;52842;52.666;5.202;2022-10-22T12:05:41;19.80;76.60
66057;DHT22;52842;52.666;5.202;2022-10-22T12:08:15;19.80;76.60
66057;DHT22;52842;52.666;5.202;2022-10-22T12:13:31;19.80;76.60
66057;DHT22;52842;52.666;5.202;2022-10-22T12:16:00;19.80;76.60
66057;DHT22;52842;52.666;5.202;2022-10-22T12:18:32;19.80;76.60
66057;DHT22;52842;52.666;5.202;2022-10-22T12:20:59;19.80;76.50
66057;DHT22;52842;52.666;5.202;2022-10-22T12:23:29;19.80;76.60
66057;DHT22;52842;52.666;5.202;2022-10-22T12:25:56;19.80;76.50
66057;DHT22;52842;52.666;5.202;2022-10-22T12:28:22;19.80;76.50
66057;DHT22;52842;52.666;5.202;2022-10-22T12:30:49;19.90;76.60
66057;DHT22;52842;52.666;5.202;2022-10-22T12:33:17;19.80;76.60
66057;DHT22;52842;52.666;5.202;2022-10-22T12:35:45;19.90;76.60
66057;DHT22;52842;52.666;5.202;2022-10-22T12:38:14;19.80;76.60
66057;DHT22;52842;52.666;5.202;2022-10-22T12:40:41;19.90;76.50
66057;DHT22;52842;52.666;5.202;2022-10-22T12:43:10;19.90;76.60
66057;DHT22;52842;52.666;5.202;2022-10-22T12:45:37;19.90;76.50
66057;DHT22;52842;52.666;5.202;2022-10-22T12:48:05;19.90;77.30
66057;DHT22;52842;52.666;5.202;2022-10-22T12:50:34;19.90;76.50
66057;DHT22;52842;52.666;5.202;2022-10-22T12:53:05;19.90;76.60
66057;DHT22;52842;52.666;5.202;2022-10-22T12:55:31;19.90;76.50
66057;DHT22;52842;52.666;5.202;2022-10-22T12:57:59;19.90;76.50
66057;DHT22;52842;52.666;5.202;2022-10-22T13:00:31;19.90;76.50
66057;DHT22;52842;52.666;5.202;2022-10-22T13:02:59;19.90;76.50
66057;DHT22;52842;52.666;5.202;2022-10-22T13:05:29;19.90;76.50
66057;DHT22;52842;52.666;5.202;2022-10-22T13:08:00;19.90;76.50
66057;DHT22;52842;52.666;5.202;2022-10-22T13:10:31;19.90;76.40
66057;DHT22;52842;52.666;5.202;2022-10-22T13:12:58;19.90;76.50
66057;DHT22;52842;52.666;5.202;2022-10-22T13:15:35;19.90;76.50
66057;DHT22;52842;52.666;5.202;2022-10-22T13:18:03;19.90;76.50
66057;DHT22;52842;52.666;5.202;2022-10-22T13:20:30;19.90;76.50
66057;DHT22;52842;52.666;5.202;2022-10-22T13:22:57;19.90;76.50
66057;DHT22;52842;52.666;5.202;2022-10-22T13:25:26;19.90;76.50
66057;DHT22;52842;52.666;5.202;2022-10-22T13:27:55;19.90;76.50
66057;DHT22;52842;52.666;5.202;2022-10-22T13:30:23;19.90;76.50
66057;DHT22;52842;52.666;5.202;2022-10-22T13:32:53;19.90;76.60
66057;DHT22;52842;52.666;5.202;2022-10-22T13:35:22;19.90;76.60
66057;DHT22;52842;52.666;5.202;2022-10-22T13:37:49;19.90;76.60
66057;DHT22;52842;52.666;5.202;2022-10-22T13:40:16;19.90;76.60
66057;DHT22;52842;52.666;5.202;2022-10-22T13:42:42;19.90;76.60
66057;DHT22;52842;52.666;5.202;2022-10-22T13:45:10;19.90;76.60
66057;DHT22;52842;52.666;5.202;2022-10-22T13:47:37;19.90;76.60
66057;DHT22;52842;52.666;5.202;2022-10-22T13:50:06;19.90;76.90
66057;DHT22;52842;52.666;5.202;2022-10-22T13:52:37;19.90;76.70
66057;DHT22;52842;52.666;5.202;2022-10-22T13:55:11;19.90;76.70
66057;DHT22;52842;52.666;5.202;2022-10-22T13:57:38;19.80;76.70
66057;DHT22;52842;52.666;5.202;2022-10-22T14:00:05;19.80;76.70
66057;DHT22;52842;52.666;5.202;2022-10-22T14:02:33;19.80;76.70
66057;DHT22;52842;52.666;5.202;2022-10-22T14:05:00;19.80;76.70
66057;DHT22;52842;52.666;5.202;2022-10-22T14:07:28;19.80;76.80
66057;DHT22;52842;52.666;5.202;2022-10-22T14:09:55;19.80;76.80
66057;DHT22;52842;52.666;5.202;2022-10-22T14:12:22;19.80;76.90
66057;DHT22;52842;52.666;5.202;2022-10-22T14:14:49;19.80;76.90
66057;DHT22;52842;52.666;5.202;2022-10-22T14:17:16;19.80;76.90
66057;DHT22;52842;52.666;5.202;2022-10-22T14:19:45;19.80;76.90
66057;DHT22;52842;52.666;5.202;2022-10-22T14:22:13;19.80;76.90
66057;DHT22;52842;52.666;5.202;2022-10-22T14:24:40;19.80;77.70
66057;DHT22;52842;52.666;5.202;2022-10-22T14:27:07;19.80;76.90
66057;DHT22;52842;52.666;5.202;2022-10-22T14:29:34;19.80;76.90
66057;DHT22;52842;52.666;5.202;2022-10-22T14:32:00;19.80;77.00
66057;DHT22;52842;52.666;5.202;2022-10-22T14:34:27;19.70;76.90
66057;DHT22;52842;52.666;5.202;2022-10-22T14:36:55;19.70;76.90
66057;DHT22;52842;52.666;5.202;2022-10-22T14:39:22;19.70;77.00
66057;DHT22;52842;52.666;5.202;2022-10-22T14:41:48;19.70;77.00
66057;DHT22;52842;52.666;5.202;2022-10-22T14:44:15;19.70;77.00
66057;DHT22;52842;52.666;5.202;2022-10-22T14:46:41;19.70;77.70
66057;DHT22;52842;52.666;5.202;2022-10-22T14:49:08;19.70;77.00
66057;DHT22;52842;52.666;5.202;2022-10-22T14:51:35;19.70;77.00
66057;DHT22;52842;52.666;5.202;2022-10-22T14:54:03;19.70;77.00
66057;DHT22;52842;52.666;5.202;2022-10-22T14:56:29;19.70;77.00
66057;DHT22;52842;52.666;5.202;2022-10-22T14:58:56;19.70;77.00
66057;DHT22;52842;52.666;5.202;2022-10-22T15:01:23;19.70;76.90
66057;DHT22;52842;52.666;5.202;2022-10-22T15:03:49;19.70;77.00
66057;DHT22;52842;52.666;5.202;2022-10-22T15:06:16;19.70;77.00
66057;DHT22;52842;52.666;5.202;2022-10-22T15:08:43;19.70;77.00
66057;DHT22;52842;52.666;5.202;2022-10-22T15:11:11;19.70;77.00
66057;DHT22;52842;52.666;5.202;2022-10-22T15:13:38;19.70;77.70
66057;DHT22;52842;52.666;5.202;2022-10-22T15:16:05;19.70;77.00
66057;DHT22;52842;52.666;5.202;2022-10-22T15:18:33;19.70;77.10
66057;DHT22;52842;52.666;5.202;2022-10-22T15:21:00;19.70;77.10
66057;DHT22;52842;52.666;5.202;2022-10-22T15:23:28;19.60;77.00
66057;DHT22;52842;52.666;5.202;2022-10-22T15:25:54;19.60;77.20
66057;DHT22;52842;52.666;5.202;2022-10-22T15:28:23;19.70;77.40
66057;DHT22;52842;52.666;5.202;2022-10-22T15:30:56;19.70;77.10
66057;DHT22;52842;52.666;5.202;2022-10-22T15:33:23;19.70;77.00
66057;DHT22;52842;52.666;5.202;2022-10-22T15:35:50;19.70;77.00
66057;DHT22;52842;52.666;5.202;2022-10-22T15:38:17;19.70;77.00
66057;DHT22;52842;52.666;5.202;2022-10-22T15:40:44;19.70;77.00